Jaume II — EAES — position and weather

sailwx.info

Track history (hours):
 
Tides and Currents Weather Stations Pressure Air Temp Water Temp Dewpoint Dewpoint Depression Visibility Wind Speed Wind Dir Waves Ship Positions

Jaume II

Last reported at 2017-Dec-17 10:22 UTC. Time now 2018-Feb-22 10:50 UTC.
Position N 38°49' E 001°17'.
Warning: this ship's position is months out of date.

; draft 3.2 m.

Type: Ship. MMSI: 224195530.

Date/timePositionNaut miles runAvg speedWind from/ knotsBaromVisibWave heightAir tempDewpointWater temp
2017-Dec-17 10:22N 38°49' E 001°17'923.7
2017-Dec-17 10:00N 38°54' E 001°27'1 1.8
2017-Dec-17 09:29N 38°54' E 001°27'817.4
2017-Dec-17 09:00N 38°57' E 001°37'4032.1
2017-Dec-17 07:45N 39°20' E 002°20'832.9
2017-Dec-17 07:30N 39°24' E 002°29'1122.3
2017-Dec-17 07:00N 39°33' E 002°38'0 0.2
2017-Dec-17 06:30N 39°33' E 002°37'0 0.0
2017-Dec-17 06:00N 39°33' E 002°37'0 0.0
2017-Dec-17 05:30N 39°33' E 002°37'0 0.0
2017-Dec-17 05:00N 39°33' E 002°37'0 0.0
2017-Dec-17 04:30N 39°33' E 002°37'0 0.0
2017-Dec-17 04:00N 39°33' E 002°37'0 0.0
2017-Dec-17 03:30N 39°33' E 002°37'0 0.0
2017-Dec-17 03:00N 39°33' E 002°37'0 0.0
2017-Dec-17 02:31N 39°33' E 002°37'0 0.0
2017-Dec-17 02:00N 39°33' E 002°37'0 0.0
2017-Dec-17 01:30N 39°33' E 002°37'0 0.0
2017-Dec-17 01:00N 39°33' E 002°37'0 0.0
2017-Dec-17 00:30N 39°33' E 002°37'0 0.0
2017-Dec-17 00:00N 39°33' E 002°37'0 0.0
2017-Dec-16 23:30N 39°33' E 002°37'0 0.0
2017-Dec-16 23:00N 39°33' E 002°37'0 0.0
2017-Dec-16 22:30N 39°33' E 002°37'0 0.0
2017-Dec-16 22:00N 39°33' E 002°37'0 0.0
2017-Dec-16 21:30N 39°33' E 002°37'2 4.5
2017-Dec-16 21:00N 39°31' E 002°37'5131.3
2017-Dec-16 19:23N 39°01' E 001°43'1232.2
2017-Dec-16 19:01N 38°54' E 001°31'3 4.9
2017-Dec-16 18:27N 38°54' E 001°27'4 7.7
2017-Dec-16 18:00N 38°51' E 001°26'9 1.2
2017-Dec-16 10:47N 38°49' E 001°15'829.3
2017-Dec-16 10:30N 38°49' E 001°25'6 8.5
2017-Dec-16 09:50N 38°54' E 001°27'1 1.6
2017-Dec-16 09:24N 38°54' E 001°28'1331.7
2017-Dec-16 09:00N 39°00' E 001°42'3531.8
2017-Dec-16 07:53N 39°20' E 002°20'1232.3
2017-Dec-16 07:30N 39°27' E 002°33'714.7
2017-Dec-16 07:00N 39°33' E 002°38'0 0.0
2017-Dec-16 06:30N 39°33' E 002°38'0 0.0
2017-Dec-16 06:00N 39°33' E 002°38'0 0.0
2017-Dec-16 05:30N 39°33' E 002°38'0 0.0
2017-Dec-16 05:00N 39°33' E 002°38'0 0.0
2017-Dec-16 04:30N 39°33' E 002°38'0 0.0
2017-Dec-16 04:00N 39°33' E 002°38'0 0.0
2017-Dec-16 03:30N 39°33' E 002°38'0 0.0
2017-Dec-16 03:00N 39°33' E 002°38'0 0.0
2017-Dec-16 02:30N 39°33' E 002°38'0 0.0
2017-Dec-16 02:00N 39°33' E 002°38'0 0.0
2017-Dec-16 01:30N 39°33' E 002°38'0 0.0
2017-Dec-16 01:00N 39°33' E 002°38'0 0.0
2017-Dec-16 00:30N 39°33' E 002°38'0 0.0
2017-Dec-16 00:00N 39°33' E 002°38'0 0.0
2017-Dec-15 23:30N 39°33' E 002°38'0 0.0
2017-Dec-15 23:00N 39°33' E 002°38'0 0.0
2017-Dec-15 22:30N 39°33' E 002°38'0 0.0
2017-Dec-15 22:00N 39°33' E 002°38'0 0.0
2017-Dec-15 21:30N 39°33' E 002°38'0 0.0
2017-Dec-15 21:00N 39°33' E 002°38'0 0.0
2017-Dec-15 20:30N 39°33' E 002°38'0 0.0
2017-Dec-15 20:00N 39°33' E 002°38'0 0.0
2017-Dec-15 19:30N 39°33' E 002°38'0 0.0
2017-Dec-15 19:00N 39°33' E 002°38'0 0.0
2017-Dec-15 18:30N 39°33' E 002°38'0 0.0
2017-Dec-15 18:00N 39°33' E 002°38'0 0.0
2017-Dec-15 17:30N 39°33' E 002°38'0 0.0
2017-Dec-15 17:00N 39°33' E 002°38'0 0.0
2017-Dec-15 16:30N 39°33' E 002°38'0 0.0
2017-Dec-15 16:00N 39°33' E 002°38'0 0.0
2017-Dec-15 15:30N 39°33' E 002°38'0 0.0
2017-Dec-15 15:00N 39°33' E 002°38'0 0.0
2017-Dec-15 14:30N 39°33' E 002°38'0 0.0
2017-Dec-15 14:00N 39°33' E 002°38'0 0.0
2017-Dec-15 13:30N 39°33' E 002°38'0 0.0
2017-Dec-15 13:00N 39°33' E 002°38'0 0.0
2017-Dec-15 12:30N 39°33' E 002°38'0 0.0
2017-Dec-15 12:00N 39°33' E 002°38'0 0.0
2017-Dec-15 11:30N 39°33' E 002°38'0 0.4
2017-Dec-15 11:00N 39°33' E 002°37'0 0.0
2017-Dec-15 10:30N 39°33' E 002°37'0 0.0
2017-Dec-15 10:00N 39°33' E 002°37'0 0.0
2017-Dec-15 09:30N 39°33' E 002°37'0 0.0
2017-Dec-15 09:00N 39°33' E 002°37'0 0.0
2017-Dec-15 08:30N 39°33' E 002°37'0 0.0
2017-Dec-15 08:00N 39°33' E 002°37'0 0.0
2017-Dec-15 07:30N 39°33' E 002°37'0 0.0
2017-Dec-15 07:00N 39°33' E 002°37'0 0.0
2017-Dec-15 06:30N 39°33' E 002°37'0 0.0
2017-Dec-15 06:00N 39°33' E 002°37'0 0.0
2017-Dec-15 05:30N 39°33' E 002°37'0 0.0
2017-Dec-15 05:00N 39°33' E 002°37'0 0.0
2017-Dec-15 04:30N 39°33' E 002°37'0 0.0
2017-Dec-15 04:00N 39°33' E 002°37'0 0.0
2017-Dec-15 02:30N 39°33' E 002°37'0 0.0
2017-Dec-15 01:00N 39°33' E 002°37'0 0.0
2017-Dec-15 00:30N 39°33' E 002°37'6711.1
2017-Dec-14 18:29N 38°54' E 001°27'5 9.8
2017-Dec-14 18:00N 38°50' E 001°25'6 0.8
2017-Dec-14 10:32N 38°49' E 001°18'122.4
2017-Dec-14 10:29N 38°49' E 001°19'816.8
2017-Dec-14 10:00N 38°54' E 001°27'0 0.6
2017-Dec-14 09:29N 38°54' E 001°27'917.2
2017-Dec-14 09:00N 38°58' E 001°37'4230.9
2017-Dec-14 07:39N 39°20' E 002°23'430.9
2017-Dec-14 07:31N 39°22' E 002°27'1427.2
2017-Dec-14 07:00N 39°33' E 002°38'1 1.6
2017-Dec-14 06:30N 39°33' E 002°37'0 0.0
2017-Dec-14 06:00N 39°33' E 002°37'0 0.0
2017-Dec-14 05:30N 39°33' E 002°37'0 0.0
2017-Dec-14 05:00N 39°33' E 002°37'0 0.0
2017-Dec-14 04:30N 39°33' E 002°37'0 0.0
2017-Dec-14 04:00N 39°33' E 002°37'0 0.0
2017-Dec-14 03:30N 39°33' E 002°37'0 0.0
2017-Dec-14 03:00N 39°33' E 002°37'0 0.0
2017-Dec-14 02:30N 39°33' E 002°37'0 0.0
2017-Dec-14 02:00N 39°33' E 002°37'0 0.0
2017-Dec-14 01:30N 39°33' E 002°37'0 0.0
2017-Dec-14 01:00N 39°33' E 002°37'0 0.0
2017-Dec-14 00:30N 39°33' E 002°37'0 0.0
2017-Dec-14 00:00N 39°33' E 002°37'0 0.0
2017-Dec-13 23:30N 39°33' E 002°37'0 0.0
2017-Dec-13 23:00N 39°33' E 002°37'0 0.0
2017-Dec-13 22:30N 39°33' E 002°37'0 0.0
2017-Dec-13 22:00N 39°33' E 002°37'0 0.0
2017-Dec-13 21:30N 39°33' E 002°37'1 1.6
2017-Dec-13 21:00N 39°33' E 002°39'1530.3
2017-Dec-13 20:30N 39°22' E 002°25'4032.6
2017-Dec-13 19:17N 39°00' E 001°43'1032.9
2017-Dec-13 19:00N 38°55' E 001°32'4 7.5
2017-Dec-13 18:28N 38°54' E 001°27'7 0.8
2017-Dec-13 10:13N 38°49' E 001°22'524.6
2017-Dec-13 10:00N 38°53' E 001°27'2 2.6
2017-Dec-13 09:23N 38°54' E 001°27'719.2
2017-Dec-13 09:01N 38°57' E 001°36'4131.4
2017-Dec-13 07:42N 39°20' E 002°20'632.0
2017-Dec-13 07:30N 39°23' E 002°27'1427.0
2017-Dec-13 07:00N 39°33' E 002°38'1 1.3
2017-Dec-13 06:30N 39°33' E 002°37'0 0.0
2017-Dec-13 06:00N 39°33' E 002°37'0 0.0
2017-Dec-13 05:30N 39°33' E 002°37'0 0.0
2017-Dec-13 05:00N 39°33' E 002°37'0 0.0
2017-Dec-13 04:30N 39°33' E 002°37'0 0.0
2017-Dec-13 04:00N 39°33' E 002°37'0 0.0
2017-Dec-13 03:30N 39°33' E 002°37'0 0.0
2017-Dec-13 03:00N 39°33' E 002°37'0 0.0
2017-Dec-13 02:30N 39°33' E 002°37'0 0.0
2017-Dec-13 02:00N 39°33' E 002°37'0 0.0
2017-Dec-13 01:30N 39°33' E 002°37'0 0.0
2017-Dec-13 01:00N 39°33' E 002°37'0 0.0
2017-Dec-13 00:30N 39°33' E 002°37'0 0.0
2017-Dec-13 00:00N 39°33' E 002°37'0 0.0
2017-Dec-12 23:30N 39°33' E 002°37'0 0.0
2017-Dec-12 23:00N 39°33' E 002°37'0 0.0
2017-Dec-12 22:30N 39°33' E 002°37'0 0.0
2017-Dec-12 22:00N 39°33' E 002°37'0 0.0
2017-Dec-12 21:30N 39°33' E 002°37'4 8.3
2017-Dec-12 21:00N 39°29' E 002°36'1530.9
2017-Dec-12 20:30N 39°19' E 002°20'3431.7
2017-Dec-12 19:26N 39°01' E 001°43'1330.1
2017-Dec-12 19:00N 38°54' E 001°29'1 2.1
2017-Dec-12 18:17N 38°54' E 001°27'619.9
2017-Dec-12 18:00N 38°49' E 001°25'13 1.8
2017-Dec-12 10:38N 38°49' E 001°08'730.9
2017-Dec-12 10:25N 38°49' E 001°16'1023.3
2017-Dec-12 10:00N 38°54' E 001°27'0 0.5
2017-Dec-12 09:28N 38°54' E 001°27'715.6
2017-Dec-12 09:00N 38°57' E 001°36'3631.7
2017-Dec-12 07:52N 39°18' E 002°13'1131.2
2017-Dec-12 07:30N 39°23' E 002°26'1427.4
2017-Dec-12 07:00N 39°33' E 002°39'1 1.6
2017-Dec-12 06:30N 39°33' E 002°37'0 0.0
2017-Dec-12 06:00N 39°33' E 002°37'0 0.0
2017-Dec-12 05:30N 39°33' E 002°37'0 0.0
2017-Dec-12 05:00N 39°33' E 002°37'0 0.0
2017-Dec-12 04:30N 39°33' E 002°37'0 0.0
2017-Dec-12 04:00N 39°33' E 002°37'0 0.0
2017-Dec-12 03:30N 39°33' E 002°37'0 0.0
2017-Dec-12 03:00N 39°33' E 002°37'0 0.0
2017-Dec-12 02:30N 39°33' E 002°37'0 0.0
2017-Dec-12 02:00N 39°33' E 002°37'0 0.0
2017-Dec-12 01:30N 39°33' E 002°37'0 0.0
2017-Dec-12 01:00N 39°33' E 002°37'0 0.0
2017-Dec-12 00:30N 39°33' E 002°37'0 0.0
2017-Dec-12 00:00N 39°33' E 002°37'0 0.0
2017-Dec-11 23:30N 39°33' E 002°37'0 0.0
2017-Dec-11 23:00N 39°33' E 002°37'0 0.0
2017-Dec-11 22:30N 39°33' E 002°37'0 0.0
2017-Dec-11 22:00N 39°33' E 002°37'0 0.0
2017-Dec-11 21:30N 39°33' E 002°37'0 0.0
2017-Dec-11 21:00N 39°33' E 002°37'0 0.0
2017-Dec-11 20:30N 39°33' E 002°37'0 0.0
2017-Dec-11 20:00N 39°33' E 002°37'0 0.0
2017-Dec-11 19:30N 39°33' E 002°37'0 0.0
2017-Dec-11 19:00N 39°33' E 002°37'0 0.0
2017-Dec-11 18:30N 39°33' E 002°37'0 0.0
2017-Dec-11 18:00N 39°33' E 002°37'0 0.0
2017-Dec-11 17:30N 39°33' E 002°37'0 0.0
2017-Dec-11 17:00N 39°33' E 002°37'0 0.7
2017-Dec-11 16:30N 39°33' E 002°38'0 0.0
2017-Dec-11 16:00N 39°33' E 002°38'0 0.0
2017-Dec-11 15:30N 39°33' E 002°38'0 0.0
2017-Dec-11 15:00N 39°33' E 002°38'0 0.0
2017-Dec-11 14:30N 39°33' E 002°38'0 0.0
2017-Dec-11 14:00N 39°33' E 002°38'0 0.0
2017-Dec-11 13:30N 39°33' E 002°38'0 0.0
2017-Dec-11 13:00N 39°33' E 002°38'0 0.0
2017-Dec-11 12:30N 39°33' E 002°38'0 0.0
2017-Dec-11 12:00N 39°33' E 002°38'0 0.0
2017-Dec-11 11:30N 39°33' E 002°38'0 0.0
2017-Dec-11 11:00N 39°33' E 002°38'0 0.0
2017-Dec-11 10:30N 39°33' E 002°38'0 0.0
2017-Dec-11 10:00N 39°33' E 002°38'0 0.0
2017-Dec-11 09:30N 39°33' E 002°38'0 0.0
2017-Dec-11 09:00N 39°33' E 002°38'0 0.0
2017-Dec-11 08:30N 39°33' E 002°38'0 0.0
2017-Dec-11 08:00N 39°33' E 002°38'0 0.0
2017-Dec-11 07:30N 39°33' E 002°38'0 0.0
2017-Dec-11 07:00N 39°33' E 002°38'0 0.0
2017-Dec-11 06:30N 39°33' E 002°38'0 0.0
2017-Dec-11 06:00N 39°33' E 002°38'0 0.0
2017-Dec-11 05:30N 39°33' E 002°38'0 0.0
2017-Dec-11 05:00N 39°33' E 002°38'0 0.0
2017-Dec-11 04:30N 39°33' E 002°38'0 0.0
2017-Dec-11 04:00N 39°33' E 002°38'0 0.0
2017-Dec-11 03:30N 39°33' E 002°38'0 0.0
2017-Dec-11 03:00N 39°33' E 002°38'0 0.0
2017-Dec-11 02:30N 39°33' E 002°38'0 0.0
2017-Dec-11 02:00N 39°33' E 002°38'0 0.0
2017-Dec-11 01:30N 39°33' E 002°38'0 0.0
2017-Dec-11 01:00N 39°33' E 002°38'0 0.0
2017-Dec-11 00:30N 39°33' E 002°38'0 0.0
2017-Dec-11 00:00N 39°33' E 002°38'0 0.0
2017-Dec-10 23:30N 39°33' E 002°38'0 0.0
2017-Dec-10 23:00N 39°33' E 002°38'0 0.0
2017-Dec-10 22:30N 39°33' E 002°38'0 0.0
2017-Dec-10 22:00N 39°33' E 002°38'0 0.0
2017-Dec-10 21:30N 39°33' E 002°38'0 0.0
2017-Dec-10 21:00N 39°33' E 002°38'0 0.0
2017-Dec-10 20:30N 39°33' E 002°38'0 0.0
2017-Dec-10 20:00N 39°33' E 002°38'0 0.0
2017-Dec-10 19:30N 39°33' E 002°38'0 0.0
2017-Dec-10 19:00N 39°33' E 002°38'0 0.0
2017-Dec-10 18:30N 39°33' E 002°38'0 0.0
2017-Dec-10 18:00N 39°33' E 002°38'0 0.0
2017-Dec-10 17:30N 39°33' E 002°38'0 0.0
2017-Dec-10 17:00N 39°33' E 002°38'0 0.0
2017-Dec-10 16:30N 39°33' E 002°38'0 0.0
2017-Dec-10 16:00N 39°33' E 002°38'0 0.0
2017-Dec-10 15:30N 39°33' E 002°38'0 0.0
2017-Dec-10 15:00N 39°33' E 002°38'0 0.0
2017-Dec-10 14:30N 39°33' E 002°38'0 0.0
2017-Dec-10 14:00N 39°33' E 002°38'0 0.0
2017-Dec-10 13:30N 39°33' E 002°38'0 0.0
2017-Dec-10 13:00N 39°33' E 002°38'0 0.0
2017-Dec-10 12:30N 39°33' E 002°38'0 0.0
2017-Dec-10 12:00N 39°33' E 002°38'0 0.0
2017-Dec-10 11:30N 39°33' E 002°38'0 0.0
2017-Dec-10 11:00N 39°33' E 002°38'0 0.0
2017-Dec-10 10:30N 39°33' E 002°38'0 0.0
2017-Dec-10 10:00N 39°33' E 002°38'0 0.0
2017-Dec-10 09:30N 39°33' E 002°38'0 0.0
2017-Dec-10 08:58N 39°33' E 002°38'0 0.0
2017-Dec-10 08:30N 39°33' E 002°38'0 0.0
2017-Dec-10 08:00N 39°33' E 002°38'0 0.0
2017-Dec-10 07:30N 39°33' E 002°38'0 0.0
2017-Dec-10 07:00N 39°33' E 002°38'0 0.0
2017-Dec-10 06:30N 39°33' E 002°38'0 0.0
2017-Dec-10 06:00N 39°33' E 002°38'0 0.0
2017-Dec-10 05:30N 39°33' E 002°38'0 0.0
2017-Dec-10 05:00N 39°33' E 002°38'0 0.0
2017-Dec-10 04:30N 39°33' E 002°38'0 0.0
2017-Dec-10 04:00N 39°33' E 002°38'0 0.0
2017-Dec-10 03:30N 39°33' E 002°38'0 0.0
2017-Dec-10 03:00N 39°33' E 002°38'0 0.0
2017-Dec-10 02:30N 39°33' E 002°38'0 0.0
2017-Dec-10 02:00N 39°33' E 002°38'0 0.0
2017-Dec-10 01:30N 39°33' E 002°38'0 0.0
2017-Dec-10 01:00N 39°33' E 002°38'0 0.0
2017-Dec-10 00:30N 39°33' E 002°38'0 0.0
2017-Dec-10 00:00N 39°33' E 002°38'0 0.0
2017-Dec-09 23:30N 39°33' E 002°38'0 0.7
2017-Dec-09 23:00N 39°33' E 002°37'3 6.7
2017-Dec-09 22:30N 39°30' E 002°36'5230.8
2017-Dec-09 20:49N 38°60' E 001°41'1031.0
2017-Dec-09 20:30N 38°54' E 001°31'3 5.7
2017-Dec-09 19:57N 38°54' E 001°27'15 2.0
2017-Dec-09 12:43N 38°50' E 001°09'730.5
2017-Dec-09 12:30N 38°49' E 001°18'917.5
2017-Dec-09 11:59N 38°54' E 001°27'0 0.0
2017-Dec-09 11:30N 38°54' E 001°27'1020.0
2017-Dec-09 11:00N 38°58' E 001°39'3430.7
2017-Dec-09 09:54N 39°18' E 002°14'1231.4
2017-Dec-09 09:30N 39°24' E 002°28'1224.4
2017-Dec-09 09:00N 39°33' E 002°38'1 1.1
2017-Dec-09 08:31N 39°33' E 002°37'0 0.0
2017-Dec-09 08:01N 39°33' E 002°37'0 0.0
2017-Dec-09 07:30N 39°33' E 002°37'0 0.0
2017-Dec-09 07:00N 39°33' E 002°37'0 0.0
2017-Dec-09 06:30N 39°33' E 002°37'0 0.0
2017-Dec-09 06:00N 39°33' E 002°37'0 0.0
2017-Dec-09 05:30N 39°33' E 002°37'0 0.0
2017-Dec-09 05:00N 39°33' E 002°37'0 0.0
2017-Dec-09 04:31N 39°33' E 002°37'0 0.0
2017-Dec-09 04:00N 39°33' E 002°37'0 0.0
2017-Dec-09 03:30N 39°33' E 002°37'0 0.0
2017-Dec-09 03:00N 39°33' E 002°37'0 0.0
2017-Dec-09 02:30N 39°33' E 002°37'0 0.0
2017-Dec-09 02:00N 39°33' E 002°37'0 0.0
2017-Dec-09 01:30N 39°33' E 002°37'0 0.0
2017-Dec-09 01:00N 39°33' E 002°37'0 0.0
2017-Dec-09 00:30N 39°33' E 002°37'0 0.0
2017-Dec-09 00:00N 39°33' E 002°37'0 0.0
2017-Dec-08 23:30N 39°33' E 002°37'0 0.0
2017-Dec-08 23:01N 39°33' E 002°37'0 0.0
2017-Dec-08 22:30N 39°33' E 002°37'0 0.0
2017-Dec-08 22:00N 39°33' E 002°37'0 0.0
2017-Dec-08 21:30N 39°33' E 002°37'0 0.0
2017-Dec-08 21:00N 39°33' E 002°37'0 0.0
2017-Dec-08 20:30N 39°33' E 002°37'0 0.0
2017-Dec-08 20:00N 39°33' E 002°37'0 0.0
2017-Dec-08 19:30N 39°33' E 002°37'0 0.0
2017-Dec-08 19:00N 39°33' E 002°37'0 0.0
2017-Dec-08 18:30N 39°33' E 002°37'0 0.0
2017-Dec-08 18:00N 39°33' E 002°37'0 0.0
2017-Dec-08 17:31N 39°33' E 002°37'0 0.0
2017-Dec-08 17:00N 39°33' E 002°37'0 0.0
2017-Dec-08 16:30N 39°33' E 002°37'0 0.0
2017-Dec-08 16:01N 39°33' E 002°37'0 0.0
2017-Dec-08 15:30N 39°33' E 002°37'0 0.0
2017-Dec-08 15:00N 39°33' E 002°37'0 0.0
2017-Dec-08 14:30N 39°33' E 002°37'0 0.0
2017-Dec-08 14:00N 39°33' E 002°37'0 0.0
2017-Dec-08 13:30N 39°33' E 002°37'0 0.0
2017-Dec-08 13:01N 39°33' E 002°37'0 0.0
2017-Dec-08 12:31N 39°33' E 002°37'0 0.0
2017-Dec-08 12:01N 39°33' E 002°37'0 0.0
2017-Dec-08 11:31N 39°33' E 002°37'0 0.0
2017-Dec-08 11:00N 39°33' E 002°37'0 0.0
2017-Dec-08 10:30N 39°33' E 002°37'0 0.0
2017-Dec-08 10:01N 39°33' E 002°37'0 0.0
2017-Dec-08 09:30N 39°33' E 002°37'0 0.0
2017-Dec-08 09:01N 39°33' E 002°37'0 0.0
2017-Dec-08 08:30N 39°33' E 002°37'0 0.0
2017-Dec-08 08:00N 39°33' E 002°37'0 0.0
2017-Dec-08 07:30N 39°33' E 002°37'0 0.0
2017-Dec-08 07:00N 39°33' E 002°37'0 0.0
2017-Dec-08 06:30N 39°33' E 002°37'0 0.0
2017-Dec-08 06:01N 39°33' E 002°37'0 0.0
2017-Dec-08 05:31N 39°33' E 002°37'0 0.0
2017-Dec-08 05:00N 39°33' E 002°37'0 0.0
2017-Dec-08 04:31N 39°33' E 002°37'0 0.0
2017-Dec-08 04:01N 39°33' E 002°37'0 0.0
2017-Dec-08 03:30N 39°33' E 002°37'0 0.0
2017-Dec-08 03:01N 39°33' E 002°37'0 0.0
2017-Dec-08 02:30N 39°33' E 002°37'0 0.0
2017-Dec-08 02:01N 39°33' E 002°37'0 0.0
2017-Dec-08 01:30N 39°33' E 002°37'0 0.0
2017-Dec-08 01:01N 39°33' E 002°37'0 0.0
2017-Dec-08 00:30N 39°33' E 002°37'0 0.0
2017-Dec-08 00:00N 39°33' E 002°37'0 0.0
2017-Dec-07 23:30N 39°33' E 002°37'0 0.0
2017-Dec-07 23:00N 39°33' E 002°37'0 0.0
2017-Dec-07 22:30N 39°33' E 002°37'0 0.0
2017-Dec-07 22:00N 39°33' E 002°37'0 0.0
2017-Dec-07 21:30N 39°33' E 002°37'0 0.0
2017-Dec-07 21:01N 39°33' E 002°37'0 0.0
2017-Dec-07 20:31N 39°33' E 002°37'0 0.0
2017-Dec-07 20:00N 39°33' E 002°37'0 0.0
2017-Dec-07 19:31N 39°33' E 002°37'0 0.0
2017-Dec-07 19:00N 39°33' E 002°37'0 0.0
2017-Dec-07 18:30N 39°33' E 002°37'0 0.0
2017-Dec-07 18:00N 39°33' E 002°37'0 0.0
2017-Dec-07 17:30N 39°33' E 002°37'0 0.0
2017-Dec-07 17:00N 39°33' E 002°37'0 0.0
2017-Dec-07 16:30N 39°33' E 002°37'0 0.0
2017-Dec-07 16:00N 39°33' E 002°37'0 0.0
2017-Dec-07 15:30N 39°33' E 002°37'0 0.0
2017-Dec-07 15:00N 39°33' E 002°37'0 0.0
2017-Dec-07 14:30N 39°33' E 002°37'0 0.0
2017-Dec-07 14:01N 39°33' E 002°37'0 0.0
2017-Dec-07 13:30N 39°33' E 002°37'0 0.0
2017-Dec-07 13:00N 39°33' E 002°37'0 0.0
2017-Dec-07 12:30N 39°33' E 002°37'0 0.0
2017-Dec-07 12:00N 39°33' E 002°37'0 0.0
2017-Dec-07 11:30N 39°33' E 002°37'0 0.0
2017-Dec-07 11:00N 39°33' E 002°37'0 0.0
2017-Dec-07 10:30N 39°33' E 002°37'  
Track history (hours):
 
Tides and Currents Weather Stations Pressure Air Temp Water Temp Dewpoint Dewpoint Depression Visibility Wind Speed Wind Dir Waves Ship Positions

Jaume II

Last reported at 2017-Dec-17 10:22 UTC. Time now 2018-Feb-22 10:50 UTC.
Position N 38°49' E 001°17'.
Warning: this ship's position is months out of date.

; draft 3.2 m.

Type: Ship. MMSI: 224195530.

Date/timePositionNaut miles runAvg speedWind from/ knotsBaromVisibWave heightAir tempDewpointWater temp
2017-Dec-17 10:22N 38°49' E 001°17'923.7
2017-Dec-17 10:00N 38°54' E 001°27'1 1.8
2017-Dec-17 09:29N 38°54' E 001°27'817.4
2017-Dec-17 09:00N 38°57' E 001°37'4032.1
2017-Dec-17 07:45N 39°20' E 002°20'832.9
2017-Dec-17 07:30N 39°24' E 002°29'1122.3
2017-Dec-17 07:00N 39°33' E 002°38'0 0.2
2017-Dec-17 06:30N 39°33' E 002°37'0 0.0
2017-Dec-17 06:00N 39°33' E 002°37'0 0.0
2017-Dec-17 05:30N 39°33' E 002°37'0 0.0
2017-Dec-17 05:00N 39°33' E 002°37'0 0.0
2017-Dec-17 04:30N 39°33' E 002°37'0 0.0
2017-Dec-17 04:00N 39°33' E 002°37'0 0.0
2017-Dec-17 03:30N 39°33' E 002°37'0 0.0
2017-Dec-17 03:00N 39°33' E 002°37'0 0.0
2017-Dec-17 02:31N 39°33' E 002°37'0 0.0
2017-Dec-17 02:00N 39°33' E 002°37'0 0.0
2017-Dec-17 01:30N 39°33' E 002°37'0 0.0
2017-Dec-17 01:00N 39°33' E 002°37'0 0.0
2017-Dec-17 00:30N 39°33' E 002°37'0 0.0
2017-Dec-17 00:00N 39°33' E 002°37'0 0.0
2017-Dec-16 23:30N 39°33' E 002°37'0 0.0
2017-Dec-16 23:00N 39°33' E 002°37'0 0.0
2017-Dec-16 22:30N 39°33' E 002°37'0 0.0
2017-Dec-16 22:00N 39°33' E 002°37'0 0.0
2017-Dec-16 21:30N 39°33' E 002°37'2 4.5
2017-Dec-16 21:00N 39°31' E 002°37'5131.3
2017-Dec-16 19:23N 39°01' E 001°43'1232.2
2017-Dec-16 19:01N 38°54' E 001°31'3 4.9
2017-Dec-16 18:27N 38°54' E 001°27'4 7.7
2017-Dec-16 18:00N 38°51' E 001°26'9 1.2
2017-Dec-16 10:47N 38°49' E 001°15'829.3
2017-Dec-16 10:30N 38°49' E 001°25'6 8.5
2017-Dec-16 09:50N 38°54' E 001°27'1 1.6
2017-Dec-16 09:24N 38°54' E 001°28'1331.7
2017-Dec-16 09:00N 39°00' E 001°42'3531.8
2017-Dec-16 07:53N 39°20' E 002°20'1232.3
2017-Dec-16 07:30N 39°27' E 002°33'714.7
2017-Dec-16 07:00N 39°33' E 002°38'0 0.0
2017-Dec-16 06:30N 39°33' E 002°38'0 0.0
2017-Dec-16 06:00N 39°33' E 002°38'0 0.0
2017-Dec-16 05:30N 39°33' E 002°38'0 0.0
2017-Dec-16 05:00N 39°33' E 002°38'0 0.0
2017-Dec-16 04:30N 39°33' E 002°38'0 0.0
2017-Dec-16 04:00N 39°33' E 002°38'0 0.0
2017-Dec-16 03:30N 39°33' E 002°38'0 0.0
2017-Dec-16 03:00N 39°33' E 002°38'0 0.0
2017-Dec-16 02:30N 39°33' E 002°38'0 0.0
2017-Dec-16 02:00N 39°33' E 002°38'0 0.0
2017-Dec-16 01:30N 39°33' E 002°38'0 0.0
2017-Dec-16 01:00N 39°33' E 002°38'0 0.0
2017-Dec-16 00:30N 39°33' E 002°38'0 0.0
2017-Dec-16 00:00N 39°33' E 002°38'0 0.0
2017-Dec-15 23:30N 39°33' E 002°38'0 0.0
2017-Dec-15 23:00N 39°33' E 002°38'0 0.0
2017-Dec-15 22:30N 39°33' E 002°38'0 0.0
2017-Dec-15 22:00N 39°33' E 002°38'0 0.0
2017-Dec-15 21:30N 39°33' E 002°38'0 0.0
2017-Dec-15 21:00N 39°33' E 002°38'0 0.0
2017-Dec-15 20:30N 39°33' E 002°38'0 0.0
2017-Dec-15 20:00N 39°33' E 002°38'0 0.0
2017-Dec-15 19:30N 39°33' E 002°38'0 0.0
2017-Dec-15 19:00N 39°33' E 002°38'0 0.0
2017-Dec-15 18:30N 39°33' E 002°38'0 0.0
2017-Dec-15 18:00N 39°33' E 002°38'0 0.0
2017-Dec-15 17:30N 39°33' E 002°38'0 0.0
2017-Dec-15 17:00N 39°33' E 002°38'0 0.0
2017-Dec-15 16:30N 39°33' E 002°38'0 0.0
2017-Dec-15 16:00N 39°33' E 002°38'0 0.0
2017-Dec-15 15:30N 39°33' E 002°38'0 0.0
2017-Dec-15 15:00N 39°33' E 002°38'0 0.0
2017-Dec-15 14:30N 39°33' E 002°38'0 0.0
2017-Dec-15 14:00N 39°33' E 002°38'0 0.0
2017-Dec-15 13:30N 39°33' E 002°38'0 0.0
2017-Dec-15 13:00N 39°33' E 002°38'0 0.0
2017-Dec-15 12:30N 39°33' E 002°38'0 0.0
2017-Dec-15 12:00N 39°33' E 002°38'0 0.0
2017-Dec-15 11:30N 39°33' E 002°38'0 0.4
2017-Dec-15 11:00N 39°33' E 002°37'0 0.0
2017-Dec-15 10:30N 39°33' E 002°37'0 0.0
2017-Dec-15 10:00N 39°33' E 002°37'0 0.0
2017-Dec-15 09:30N 39°33' E 002°37'0 0.0
2017-Dec-15 09:00N 39°33' E 002°37'0 0.0
2017-Dec-15 08:30N 39°33' E 002°37'0 0.0
2017-Dec-15 08:00N 39°33' E 002°37'0 0.0
2017-Dec-15 07:30N 39°33' E 002°37'0 0.0
2017-Dec-15 07:00N 39°33' E 002°37'0 0.0
2017-Dec-15 06:30N 39°33' E 002°37'0 0.0
2017-Dec-15 06:00N 39°33' E 002°37'0 0.0
2017-Dec-15 05:30N 39°33' E 002°37'0 0.0
2017-Dec-15 05:00N 39°33' E 002°37'0 0.0
2017-Dec-15 04:30N 39°33' E 002°37'0 0.0
2017-Dec-15 04:00N 39°33' E 002°37'0 0.0
2017-Dec-15 02:30N 39°33' E 002°37'0 0.0
2017-Dec-15 01:00N 39°33' E 002°37'0 0.0
2017-Dec-15 00:30N 39°33' E 002°37'6711.1
2017-Dec-14 18:29N 38°54' E 001°27'5 9.8
2017-Dec-14 18:00N 38°50' E 001°25'6 0.8
2017-Dec-14 10:32N 38°49' E 001°18'122.4
2017-Dec-14 10:29N 38°49' E 001°19'816.8
2017-Dec-14 10:00N 38°54' E 001°27'0 0.6
2017-Dec-14 09:29N 38°54' E 001°27'917.2
2017-Dec-14 09:00N 38°58' E 001°37'4230.9
2017-Dec-14 07:39N 39°20' E 002°23'430.9
2017-Dec-14 07:31N 39°22' E 002°27'1427.2
2017-Dec-14 07:00N 39°33' E 002°38'1 1.6
2017-Dec-14 06:30N 39°33' E 002°37'0 0.0
2017-Dec-14 06:00N 39°33' E 002°37'0 0.0
2017-Dec-14 05:30N 39°33' E 002°37'0 0.0
2017-Dec-14 05:00N 39°33' E 002°37'0 0.0
2017-Dec-14 04:30N 39°33' E 002°37'0 0.0
2017-Dec-14 04:00N 39°33' E 002°37'0 0.0
2017-Dec-14 03:30N 39°33' E 002°37'0 0.0
2017-Dec-14 03:00N 39°33' E 002°37'0 0.0
2017-Dec-14 02:30N 39°33' E 002°37'0 0.0
2017-Dec-14 02:00N 39°33' E 002°37'0 0.0
2017-Dec-14 01:30N 39°33' E 002°37'0 0.0
2017-Dec-14 01:00N 39°33' E 002°37'0 0.0
2017-Dec-14 00:30N 39°33' E 002°37'0 0.0
2017-Dec-14 00:00N 39°33' E 002°37'0 0.0
2017-Dec-13 23:30N 39°33' E 002°37'0 0.0
2017-Dec-13 23:00N 39°33' E 002°37'0 0.0
2017-Dec-13 22:30N 39°33' E 002°37'0 0.0
2017-Dec-13 22:00N 39°33' E 002°37'0 0.0
2017-Dec-13 21:30N 39°33' E 002°37'1 1.6
2017-Dec-13 21:00N 39°33' E 002°39'1530.3
2017-Dec-13 20:30N 39°22' E 002°25'4032.6
2017-Dec-13 19:17N 39°00' E 001°43'1032.9
2017-Dec-13 19:00N 38°55' E 001°32'4 7.5
2017-Dec-13 18:28N 38°54' E 001°27'7 0.8
2017-Dec-13 10:13N 38°49' E 001°22'524.6
2017-Dec-13 10:00N 38°53' E 001°27'2 2.6
2017-Dec-13 09:23N 38°54' E 001°27'719.2
2017-Dec-13 09:01N 38°57' E 001°36'4131.4
2017-Dec-13 07:42N 39°20' E 002°20'632.0
2017-Dec-13 07:30N 39°23' E 002°27'1427.0
2017-Dec-13 07:00N 39°33' E 002°38'1 1.3
2017-Dec-13 06:30N 39°33' E 002°37'0 0.0
2017-Dec-13 06:00N 39°33' E 002°37'0 0.0
2017-Dec-13 05:30N 39°33' E 002°37'0 0.0
2017-Dec-13 05:00N 39°33' E 002°37'0 0.0
2017-Dec-13 04:30N 39°33' E 002°37'0 0.0
2017-Dec-13 04:00N 39°33' E 002°37'0 0.0
2017-Dec-13 03:30N 39°33' E 002°37'0 0.0
2017-Dec-13 03:00N 39°33' E 002°37'0 0.0
2017-Dec-13 02:30N 39°33' E 002°37'0 0.0
2017-Dec-13 02:00N 39°33' E 002°37'0 0.0
2017-Dec-13 01:30N 39°33' E 002°37'0 0.0
2017-Dec-13 01:00N 39°33' E 002°37'0 0.0
2017-Dec-13 00:30N 39°33' E 002°37'0 0.0
2017-Dec-13 00:00N 39°33' E 002°37'0 0.0
2017-Dec-12 23:30N 39°33' E 002°37'0 0.0
2017-Dec-12 23:00N 39°33' E 002°37'0 0.0
2017-Dec-12 22:30N 39°33' E 002°37'0 0.0
2017-Dec-12 22:00N 39°33' E 002°37'0 0.0
2017-Dec-12 21:30N 39°33' E 002°37'4 8.3
2017-Dec-12 21:00N 39°29' E 002°36'1530.9
2017-Dec-12 20:30N 39°19' E 002°20'3431.7
2017-Dec-12 19:26N 39°01' E 001°43'1330.1
2017-Dec-12 19:00N 38°54' E 001°29'1 2.1
2017-Dec-12 18:17N 38°54' E 001°27'619.9
2017-Dec-12 18:00N 38°49' E 001°25'13 1.8
2017-Dec-12 10:38N 38°49' E 001°08'730.9
2017-Dec-12 10:25N 38°49' E 001°16'1023.3
2017-Dec-12 10:00N 38°54' E 001°27'0 0.5
2017-Dec-12 09:28N 38°54' E 001°27'715.6
2017-Dec-12 09:00N 38°57' E 001°36'3631.7
2017-Dec-12 07:52N 39°18' E 002°13'1131.2
2017-Dec-12 07:30N 39°23' E 002°26'1427.4
2017-Dec-12 07:00N 39°33' E 002°39'1 1.6
2017-Dec-12 06:30N 39°33' E 002°37'0 0.0
2017-Dec-12 06:00N 39°33' E 002°37'0 0.0
2017-Dec-12 05:30N 39°33' E 002°37'0 0.0
2017-Dec-12 05:00N 39°33' E 002°37'0 0.0
2017-Dec-12 04:30N 39°33' E 002°37'0 0.0
2017-Dec-12 04:00N 39°33' E 002°37'0 0.0
2017-Dec-12 03:30N 39°33' E 002°37'0 0.0
2017-Dec-12 03:00N 39°33' E 002°37'0 0.0
2017-Dec-12 02:30N 39°33' E 002°37'0 0.0
2017-Dec-12 02:00N 39°33' E 002°37'0 0.0
2017-Dec-12 01:30N 39°33' E 002°37'0 0.0
2017-Dec-12 01:00N 39°33' E 002°37'0 0.0
2017-Dec-12 00:30N 39°33' E 002°37'0 0.0
2017-Dec-12 00:00N 39°33' E 002°37'0 0.0
2017-Dec-11 23:30N 39°33' E 002°37'0 0.0
2017-Dec-11 23:00N 39°33' E 002°37'0 0.0
2017-Dec-11 22:30N 39°33' E 002°37'0 0.0
2017-Dec-11 22:00N 39°33' E 002°37'0 0.0
2017-Dec-11 21:30N 39°33' E 002°37'0 0.0
2017-Dec-11 21:00N 39°33' E 002°37'0 0.0
2017-Dec-11 20:30N 39°33' E 002°37'0 0.0
2017-Dec-11 20:00N 39°33' E 002°37'0 0.0
2017-Dec-11 19:30N 39°33' E 002°37'0 0.0
2017-Dec-11 19:00N 39°33' E 002°37'0 0.0
2017-Dec-11 18:30N 39°33' E 002°37'0 0.0
2017-Dec-11 18:00N 39°33' E 002°37'0 0.0
2017-Dec-11 17:30N 39°33' E 002°37'0 0.0
2017-Dec-11 17:00N 39°33' E 002°37'0 0.7
2017-Dec-11 16:30N 39°33' E 002°38'0 0.0
2017-Dec-11 16:00N 39°33' E 002°38'0 0.0
2017-Dec-11 15:30N 39°33' E 002°38'0 0.0
2017-Dec-11 15:00N 39°33' E 002°38'0 0.0
2017-Dec-11 14:30N 39°33' E 002°38'0 0.0
2017-Dec-11 14:00N 39°33' E 002°38'0 0.0
2017-Dec-11 13:30N 39°33' E 002°38'0 0.0
2017-Dec-11 13:00N 39°33' E 002°38'0 0.0
2017-Dec-11 12:30N 39°33' E 002°38'0 0.0
2017-Dec-11 12:00N 39°33' E 002°38'0 0.0
2017-Dec-11 11:30N 39°33' E 002°38'0 0.0
2017-Dec-11 11:00N 39°33' E 002°38'0 0.0
2017-Dec-11 10:30N 39°33' E 002°38'0 0.0
2017-Dec-11 10:00N 39°33' E 002°38'0 0.0
2017-Dec-11 09:30N 39°33' E 002°38'0 0.0
2017-Dec-11 09:00N 39°33' E 002°38'0 0.0
2017-Dec-11 08:30N 39°33' E 002°38'0 0.0
2017-Dec-11 08:00N 39°33' E 002°38'0 0.0
2017-Dec-11 07:30N 39°33' E 002°38'0 0.0
2017-Dec-11 07:00N 39°33' E 002°38'0 0.0
2017-Dec-11 06:30N 39°33' E 002°38'0 0.0
2017-Dec-11 06:00N 39°33' E 002°38'0 0.0
2017-Dec-11 05:30N 39°33' E 002°38'0 0.0
2017-Dec-11 05:00N 39°33' E 002°38'0 0.0
2017-Dec-11 04:30N 39°33' E 002°38'0 0.0
2017-Dec-11 04:00N 39°33' E 002°38'0 0.0
2017-Dec-11 03:30N 39°33' E 002°38'0 0.0
2017-Dec-11 03:00N 39°33' E 002°38'0 0.0
2017-Dec-11 02:30N 39°33' E 002°38'0 0.0
2017-Dec-11 02:00N 39°33' E 002°38'0 0.0
2017-Dec-11 01:30N 39°33' E 002°38'0 0.0
2017-Dec-11 01:00N 39°33' E 002°38'0 0.0
2017-Dec-11 00:30N 39°33' E 002°38'0 0.0
2017-Dec-11 00:00N 39°33' E 002°38'0 0.0
2017-Dec-10 23:30N 39°33' E 002°38'0 0.0
2017-Dec-10 23:00N 39°33' E 002°38'0 0.0
2017-Dec-10 22:30N 39°33' E 002°38'0 0.0
2017-Dec-10 22:00N 39°33' E 002°38'0 0.0
2017-Dec-10 21:30N 39°33' E 002°38'0 0.0
2017-Dec-10 21:00N 39°33' E 002°38'0 0.0
2017-Dec-10 20:30N 39°33' E 002°38'0 0.0
2017-Dec-10 20:00N 39°33' E 002°38'0 0.0
2017-Dec-10 19:30N 39°33' E 002°38'0 0.0
2017-Dec-10 19:00N 39°33' E 002°38'0 0.0
2017-Dec-10 18:30N 39°33' E 002°38'0 0.0
2017-Dec-10 18:00N 39°33' E 002°38'0 0.0
2017-Dec-10 17:30N 39°33' E 002°38'0 0.0
2017-Dec-10 17:00N 39°33' E 002°38'0 0.0
2017-Dec-10 16:30N 39°33' E 002°38'0 0.0
2017-Dec-10 16:00N 39°33' E 002°38'0 0.0
2017-Dec-10 15:30N 39°33' E 002°38'0 0.0
2017-Dec-10 15:00N 39°33' E 002°38'0 0.0
2017-Dec-10 14:30N 39°33' E 002°38'0 0.0
2017-Dec-10 14:00N 39°33' E 002°38'0 0.0
2017-Dec-10 13:30N 39°33' E 002°38'0 0.0
2017-Dec-10 13:00N 39°33' E 002°38'0 0.0
2017-Dec-10 12:30N 39°33' E 002°38'0 0.0
2017-Dec-10 12:00N 39°33' E 002°38'0 0.0
2017-Dec-10 11:30N 39°33' E 002°38'0 0.0
2017-Dec-10 11:00N 39°33' E 002°38'0 0.0
2017-Dec-10 10:30N 39°33' E 002°38'0 0.0
2017-Dec-10 10:00N 39°33' E 002°38'0 0.0
2017-Dec-10 09:30N 39°33' E 002°38'0 0.0
2017-Dec-10 08:58N 39°33' E 002°38'0 0.0
2017-Dec-10 08:30N 39°33' E 002°38'0 0.0
2017-Dec-10 08:00N 39°33' E 002°38'0 0.0
2017-Dec-10 07:30N 39°33' E 002°38'0 0.0
2017-Dec-10 07:00N 39°33' E 002°38'0 0.0
2017-Dec-10 06:30N 39°33' E 002°38'0 0.0
2017-Dec-10 06:00N 39°33' E 002°38'0 0.0
2017-Dec-10 05:30N 39°33' E 002°38'0 0.0
2017-Dec-10 05:00N 39°33' E 002°38'0 0.0
2017-Dec-10 04:30N 39°33' E 002°38'0 0.0
2017-Dec-10 04:00N 39°33' E 002°38'0 0.0
2017-Dec-10 03:30N 39°33' E 002°38'0 0.0
2017-Dec-10 03:00N 39°33' E 002°38'0 0.0
2017-Dec-10 02:30N 39°33' E 002°38'0 0.0
2017-Dec-10 02:00N 39°33' E 002°38'0 0.0
2017-Dec-10 01:30N 39°33' E 002°38'0 0.0
2017-Dec-10 01:00N 39°33' E 002°38'0 0.0
2017-Dec-10 00:30N 39°33' E 002°38'0 0.0
2017-Dec-10 00:00N 39°33' E 002°38'0 0.0
2017-Dec-09 23:30N 39°33' E 002°38'0 0.7
2017-Dec-09 23:00N 39°33' E 002°37'3 6.7
2017-Dec-09 22:30N 39°30' E 002°36'5230.8
2017-Dec-09 20:49N 38°60' E 001°41'1031.0
2017-Dec-09 20:30N 38°54' E 001°31'3 5.7
2017-Dec-09 19:57N 38°54' E 001°27'15 2.0
2017-Dec-09 12:43N 38°50' E 001°09'730.5
2017-Dec-09 12:30N 38°49' E 001°18'917.5
2017-Dec-09 11:59N 38°54' E 001°27'0 0.0
2017-Dec-09 11:30N 38°54' E 001°27'1020.0
2017-Dec-09 11:00N 38°58' E 001°39'3430.7
2017-Dec-09 09:54N 39°18' E 002°14'1231.4
2017-Dec-09 09:30N 39°24' E 002°28'1224.4
2017-Dec-09 09:00N 39°33' E 002°38'1 1.1
2017-Dec-09 08:31N 39°33' E 002°37'0 0.0
2017-Dec-09 08:01N 39°33' E 002°37'0 0.0
2017-Dec-09 07:30N 39°33' E 002°37'0 0.0
2017-Dec-09 07:00N 39°33' E 002°37'0 0.0
2017-Dec-09 06:30N 39°33' E 002°37'0 0.0
2017-Dec-09 06:00N 39°33' E 002°37'0 0.0
2017-Dec-09 05:30N 39°33' E 002°37'0 0.0
2017-Dec-09 05:00N 39°33' E 002°37'0 0.0
2017-Dec-09 04:31N 39°33' E 002°37'0 0.0
2017-Dec-09 04:00N 39°33' E 002°37'0 0.0
2017-Dec-09 03:30N 39°33' E 002°37'0 0.0
2017-Dec-09 03:00N 39°33' E 002°37'0 0.0
2017-Dec-09 02:30N 39°33' E 002°37'0 0.0
2017-Dec-09 02:00N 39°33' E 002°37'0 0.0
2017-Dec-09 01:30N 39°33' E 002°37'0 0.0
2017-Dec-09 01:00N 39°33' E 002°37'0 0.0
2017-Dec-09 00:30N 39°33' E 002°37'0 0.0
2017-Dec-09 00:00N 39°33' E 002°37'0 0.0
2017-Dec-08 23:30N 39°33' E 002°37'0 0.0
2017-Dec-08 23:01N 39°33' E 002°37'0 0.0
2017-Dec-08 22:30N 39°33' E 002°37'0 0.0
2017-Dec-08 22:00N 39°33' E 002°37'0 0.0
2017-Dec-08 21:30N 39°33' E 002°37'0 0.0
2017-Dec-08 21:00N 39°33' E 002°37'0 0.0
2017-Dec-08 20:30N 39°33' E 002°37'0 0.0
2017-Dec-08 20:00N 39°33' E 002°37'0 0.0
2017-Dec-08 19:30N 39°33' E 002°37'0 0.0
2017-Dec-08 19:00N 39°33' E 002°37'0 0.0
2017-Dec-08 18:30N 39°33' E 002°37'0 0.0
2017-Dec-08 18:00N 39°33' E 002°37'0 0.0
2017-Dec-08 17:31N 39°33' E 002°37'0 0.0
2017-Dec-08 17:00N 39°33' E 002°37'0 0.0
2017-Dec-08 16:30N 39°33' E 002°37'0 0.0
2017-Dec-08 16:01N 39°33' E 002°37'0 0.0
2017-Dec-08 15:30N 39°33' E 002°37'0 0.0
2017-Dec-08 15:00N 39°33' E 002°37'0 0.0
2017-Dec-08 14:30N 39°33' E 002°37'0 0.0
2017-Dec-08 14:00N 39°33' E 002°37'0 0.0
2017-Dec-08 13:30N 39°33' E 002°37'0 0.0
2017-Dec-08 13:01N 39°33' E 002°37'0 0.0
2017-Dec-08 12:31N 39°33' E 002°37'0 0.0
2017-Dec-08 12:01N 39°33' E 002°37'0 0.0
2017-Dec-08 11:31N 39°33' E 002°37'0 0.0
2017-Dec-08 11:00N 39°33' E 002°37'0 0.0
2017-Dec-08 10:30N 39°33' E 002°37'0 0.0
2017-Dec-08 10:01N 39°33' E 002°37'0 0.0
2017-Dec-08 09:30N 39°33' E 002°37'0 0.0
2017-Dec-08 09:01N 39°33' E 002°37'0 0.0
2017-Dec-08 08:30N 39°33' E 002°37'0 0.0
2017-Dec-08 08:00N 39°33' E 002°37'0 0.0
2017-Dec-08 07:30N 39°33' E 002°37'0 0.0
2017-Dec-08 07:00N 39°33' E 002°37'0 0.0
2017-Dec-08 06:30N 39°33' E 002°37'0 0.0
2017-Dec-08 06:01N 39°33' E 002°37'0 0.0
2017-Dec-08 05:31N 39°33' E 002°37'0 0.0
2017-Dec-08 05:00N 39°33' E 002°37'0 0.0
2017-Dec-08 04:31N 39°33' E 002°37'0 0.0
2017-Dec-08 04:01N 39°33' E 002°37'0 0.0
2017-Dec-08 03:30N 39°33' E 002°37'0 0.0
2017-Dec-08 03:01N 39°33' E 002°37'0 0.0
2017-Dec-08 02:30N 39°33' E 002°37'0 0.0
2017-Dec-08 02:01N 39°33' E 002°37'0 0.0
2017-Dec-08 01:30N 39°33' E 002°37'0 0.0
2017-Dec-08 01:01N 39°33' E 002°37'0 0.0
2017-Dec-08 00:30N 39°33' E 002°37'0 0.0
2017-Dec-08 00:00N 39°33' E 002°37'0 0.0
2017-Dec-07 23:30N 39°33' E 002°37'0 0.0
2017-Dec-07 23:00N 39°33' E 002°37'0 0.0
2017-Dec-07 22:30N 39°33' E 002°37'0 0.0
2017-Dec-07 22:00N 39°33' E 002°37'0 0.0
2017-Dec-07 21:30N 39°33' E 002°37'0 0.0
2017-Dec-07 21:01N 39°33' E 002°37'0 0.0
2017-Dec-07 20:31N 39°33' E 002°37'0 0.0
2017-Dec-07 20:00N 39°33' E 002°37'0 0.0
2017-Dec-07 19:31N 39°33' E 002°37'0 0.0
2017-Dec-07 19:00N 39°33' E 002°37'0 0.0
2017-Dec-07 18:30N 39°33' E 002°37'0 0.0
2017-Dec-07 18:00N 39°33' E 002°37'0 0.0
2017-Dec-07 17:30N 39°33' E 002°37'0 0.0
2017-Dec-07 17:00N 39°33' E 002°37'0 0.0
2017-Dec-07 16:30N 39°33' E 002°37'0 0.0
2017-Dec-07 16:00N 39°33' E 002°37'0 0.0
2017-Dec-07 15:30N 39°33' E 002°37'0 0.0
2017-Dec-07 15:00N 39°33' E 002°37'0 0.0
2017-Dec-07 14:30N 39°33' E 002°37'0 0.0
2017-Dec-07 14:01N 39°33' E 002°37'0 0.0
2017-Dec-07 13:30N 39°33' E 002°37'0 0.0
2017-Dec-07 13:00N 39°33' E 002°37'0 0.0
2017-Dec-07 12:30N 39°33' E 002°37'0 0.0
2017-Dec-07 12:00N 39°33' E 002°37'0 0.0
2017-Dec-07 11:30N 39°33' E 002°37'0 0.0
2017-Dec-07 11:00N 39°33' E 002°37'0 0.0
2017-Dec-07 10:30N 39°33' E 002°37'  

Dump ship's entire track history